createdAt,value
2022-11-29T00:01:01.458Z,99001.48
2022-11-29T00:03:28.938Z,99004.08
2022-11-29T00:05:56.488Z,99005.56
2022-11-29T00:08:24.453Z,99003.64
2022-11-29T00:10:51.435Z,99010.24
2022-11-29T00:13:18.231Z,99005.34
2022-11-29T00:15:44.913Z,99007.44
2022-11-29T00:18:11.603Z,98999.13
2022-11-29T00:20:39.469Z,98998.17
2022-11-29T00:23:06.167Z,98997.56
2022-11-29T00:25:32.944Z,98993.52
2022-11-29T00:27:59.870Z,98994.27
2022-11-29T00:30:26.618Z,99000.60
2022-11-29T00:32:53.381Z,99001.70
2022-11-29T00:35:20.066Z,99000.05
2022-11-29T00:37:46.732Z,99003.64
2022-11-29T00:40:13.413Z,98999.87
2022-11-29T00:42:40.099Z,99000.30
2022-11-29T00:45:07.307Z,99000.17
2022-11-29T00:47:33.983Z,98999.71
2022-11-29T00:50:00.666Z,99000.62
2022-11-29T00:52:27.358Z,98999.94
2022-11-29T00:54:54.051Z,99002.85
2022-11-29T00:57:21.396Z,99000.18
2022-11-29T00:59:48.075Z,98997.95
2022-11-29T01:02:14.840Z,98994.73
2022-11-29T01:04:41.815Z,99001.04
2022-11-29T01:07:08.686Z,99000.05
2022-11-29T01:09:35.371Z,98996.83
2022-11-29T01:12:02.154Z,98994.98
2022-11-29T01:14:28.813Z,98989.69
2022-11-29T01:16:55.527Z,98988.89
2022-11-29T01:19:22.354Z,98987.80
2022-11-29T01:21:49.154Z,98994.29
2022-11-29T01:24:15.803Z,98989.64
2022-11-29T01:29:26.589Z,98986.27
2022-11-29T01:31:53.256Z,98985.45
2022-11-29T01:34:20.087Z,98986.43
2022-11-29T01:36:46.834Z,98979.19
2022-11-29T01:39:13.527Z,98977.74
2022-11-29T01:41:40.216Z,98971.02
2022-11-29T01:44:26.948Z,98975.48
2022-11-29T01:46:54.610Z,98969.73
2022-11-29T01:49:39.732Z,98967.77
2022-11-29T01:52:14.003Z,98970.19
2022-11-29T01:54:45.680Z,98967.32
2022-11-29T01:57:13.090Z,98965.02
2022-11-29T01:59:46.581Z,98965.70
2022-11-29T02:02:17.526Z,98962.05
2022-11-29T02:04:46.308Z,98963.28
2022-11-29T02:07:13.253Z,98964.88
2022-11-29T02:09:40.732Z,98967.36
2022-11-29T02:12:38.491Z,98960.55
2022-11-29T02:15:13.602Z,98965.23
2022-11-29T02:17:58.783Z,98975.73
2022-11-29T02:20:48.434Z,98974.83
2022-11-29T02:23:31.909Z,98976.54
2022-11-29T02:26:21.311Z,98971.39
2022-11-29T02:29:20.961Z,98970.11
2022-11-29T02:32:02.762Z,98977.96
2022-11-29T02:34:52.200Z,98975.04
2022-11-29T02:37:27.360Z,98978.98
2022-11-29T02:40:04.860Z,98977.52
2022-11-29T02:42:57.192Z,98977.34
2022-11-29T02:45:54.760Z,98976.87
2022-11-29T02:48:44.417Z,98978.89
2022-11-29T02:51:30.928Z,98975.83
2022-11-29T02:54:04.623Z,98983.55
2022-11-29T02:56:36.924Z,98982.64
2022-11-29T02:59:16.705Z,98985.35
2022-11-29T03:02:08.501Z,98984.86
2022-11-29T03:04:43.924Z,98994.44
2022-11-29T03:07:14.377Z,98995.04
2022-11-29T03:09:48.753Z,99001.42
2022-11-29T03:12:38.403Z,99000.06
2022-11-29T03:15:19.822Z,99003.58
2022-11-29T03:18:01.192Z,99001.88
2022-11-29T03:20:50.370Z,99004.23
2022-11-29T03:23:27.110Z,99007.98
2022-11-29T03:26:10.930Z,99009.65
2022-11-29T03:28:43.417Z,99009.69
2022-11-29T03:31:18.064Z,99014.95
2022-11-29T03:34:01.565Z,99012.16
2022-11-29T03:36:41.230Z,99010.02
2022-11-29T03:39:17.383Z,99008.17
2022-11-29T03:41:52.377Z,99015.38
2022-11-29T03:44:25.543Z,99019.66
2022-11-29T03:47:12.687Z,99018.25
2022-11-29T03:49:44.161Z,99023.36
2022-11-29T03:52:41.580Z,99021.88
2022-11-29T03:55:13.315Z,99022.71
2022-11-29T03:57:56.832Z,99027.70
2022-11-29T04:00:23.750Z,99025.17
2022-11-29T04:03:21.946Z,99026.72
2022-11-29T04:06:05.460Z,99025.27
2022-11-29T04:09:02.613Z,99027.55
2022-11-29T04:11:54.806Z,99030.30
2022-11-29T04:14:44.898Z,99035.23
2022-11-29T04:17:13.789Z,99034.93
2022-11-29T04:20:11.594Z,99037.31
2022-11-29T04:23:01.648Z,99036.83
2022-11-29T04:25:44.733Z,99041.98
2022-11-29T04:28:39.046Z,99043.36
2022-11-29T04:31:28.918Z,99045.31
2022-11-29T04:33:58.937Z,99050.20
2022-11-29T04:36:30.502Z,99056.78
2022-11-29T04:39:00.584Z,99057.20
2022-11-29T04:41:30.646Z,99054.60
2022-11-29T04:44:20.433Z,99052.90
2022-11-29T04:47:09.759Z,99056.08
2022-11-29T04:49:36.425Z,99062.79
2022-11-29T04:52:20.612Z,99060.46
2022-11-29T04:54:57.091Z,99063.92
2022-11-29T04:57:35.773Z,99065.16
2022-11-29T05:00:13.499Z,99065.71
2022-11-29T05:02:59.842Z,99070.40
2022-11-29T05:05:43.625Z,99075.58
2022-11-29T05:08:13.115Z,99076.48
2022-11-29T05:10:47.463Z,99076.59
2022-11-29T05:13:44.630Z,99075.70
2022-11-29T05:16:42.777Z,99076.77
2022-11-29T05:19:14.986Z,99075.84
2022-11-29T05:21:57.129Z,99079.28
2022-11-29T05:24:39.070Z,99079.06
2022-11-29T05:27:27.069Z,99081.48
2022-11-29T05:30:13.184Z,99085.23
2022-11-29T05:32:50.712Z,99086.71
2022-11-29T05:35:34.613Z,99085.04
2022-11-29T05:38:18.018Z,99094.06
2022-11-29T05:40:44.829Z,99097.18
2022-11-29T05:43:35.048Z,99097.36
2022-11-29T05:46:13.614Z,99105.48
2022-11-29T05:48:48.485Z,99109.87
2022-11-29T05:51:21.133Z,99109.75
2022-11-29T05:54:03.242Z,99114.09
2022-11-29T05:56:49.106Z,99106.52
2022-11-29T05:59:22.319Z,99116.58
2022-11-29T06:01:59.625Z,99117.05
2022-11-29T06:04:39.581Z,99124.91
2022-11-29T06:07:24.949Z,99128.34
2022-11-29T06:09:53.048Z,99127.89
2022-11-29T06:12:23.849Z,99132.70
2022-11-29T06:15:21.524Z,99135.27
2022-11-29T06:18:03.758Z,99140.50
2022-11-29T06:20:40.435Z,99141.70
2022-11-29T06:23:33.418Z,99141.83
2022-11-29T06:26:24.264Z,99144.11
2022-11-29T06:28:51.017Z,99147.27
2022-11-29T06:31:24.618Z,99148.23
2022-11-29T06:34:12.454Z,99149.84
2022-11-29T06:36:47.167Z,99151.66
2022-11-29T06:39:14.209Z,99154.88
2022-11-29T06:41:40.951Z,99152.02
2022-11-29T06:44:08.653Z,99152.17
2022-11-29T06:47:05.590Z,99160.63
2022-11-29T06:49:44.730Z,99158.91
2022-11-29T06:52:32.541Z,99159.70
2022-11-29T06:55:03.001Z,99162.16
2022-11-29T06:57:44.843Z,99160.06
2022-11-29T07:00:21.628Z,99160.18
2022-11-29T07:02:48.371Z,99159.36
2022-11-29T07:05:23.865Z,99161.73
2022-11-29T07:07:54.362Z,99160.36
2022-11-29T07:10:22.458Z,99161.80
2022-11-29T07:12:51.441Z,99161.76
2022-11-29T07:15:21.466Z,99165.02
2022-11-29T07:17:55.417Z,99163.37
2022-11-29T07:20:35.918Z,99164.62
2022-11-29T07:23:30.841Z,99164.87
2022-11-29T07:26:28.535Z,99168.64
2022-11-29T07:29:24.073Z,99174.73
2022-11-29T07:32:11.998Z,99168.63
2022-11-29T07:35:00.581Z,99177.64
2022-11-29T07:37:46.209Z,99172.92
2022-11-29T07:40:22.139Z,99162.45
2022-11-29T07:43:04.040Z,99171.48
2022-11-29T07:45:33.442Z,99167.17
2022-11-29T07:48:00.448Z,99170.47
2022-11-29T07:50:28.436Z,99173.21
2022-11-29T07:52:56.497Z,99166.55
2022-11-29T07:55:25.996Z,99168.99
2022-11-29T07:57:53.691Z,99162.91
2022-11-29T08:00:21.607Z,99165.55
2022-11-29T08:02:49.988Z,99167.09
2022-11-29T08:05:17.252Z,99167.70
2022-11-29T08:07:44.097Z,99169.48
2022-11-29T08:10:15.031Z,99173.20
2022-11-29T08:12:44.897Z,99173.68
2022-11-29T08:15:12.103Z,99178.20
2022-11-29T08:17:39.613Z,99177.89
2022-11-29T08:20:09.049Z,99173.45
2022-11-29T08:22:36.063Z,99167.77
2022-11-29T08:25:03.780Z,99168.83
2022-11-29T08:27:30.840Z,99173.28
2022-11-29T08:29:57.778Z,99173.55
2022-11-29T08:32:24.922Z,99178.42
2022-11-29T08:34:51.985Z,99177.54
2022-11-29T08:37:18.726Z,99178.23
2022-11-29T08:39:45.572Z,99182.84
2022-11-29T08:42:12.263Z,99176.98
2022-11-29T08:44:39.052Z,99177.52
2022-11-29T08:47:21.080Z,99173.88
2022-11-29T08:50:03.209Z,99172.29
2022-11-29T08:52:47.042Z,99171.81
2022-11-29T08:55:13.847Z,99172.07
2022-11-29T08:57:41.402Z,99175.92
2022-11-29T09:00:09.456Z,99174.08
2022-11-29T09:02:37.363Z,99172.25
2022-11-29T09:05:05.766Z,99171.02
2022-11-29T09:07:32.656Z,99172.68
2022-11-29T09:10:01.057Z,99172.67
2022-11-29T09:12:27.907Z,99171.48
2022-11-29T09:14:54.658Z,99170.95
2022-11-29T09:17:21.401Z,99165.55
2022-11-29T09:19:48.227Z,99166.80
2022-11-29T09:22:14.982Z,99171.85
2022-11-29T09:24:41.733Z,99171.36
2022-11-29T09:27:08.453Z,99169.59
2022-11-29T09:29:35.330Z,99170.69
2022-11-29T09:32:02.092Z,99166.98
2022-11-29T09:34:28.914Z,99169.06
2022-11-29T09:36:55.768Z,99168.76
2022-11-29T09:39:23.072Z,99169.63
2022-11-29T09:42:11.966Z,99159.86
2022-11-29T09:44:46.355Z,99163.73
2022-11-29T09:47:14.268Z,99164.44
2022-11-29T09:49:57.428Z,99160.77
2022-11-29T09:52:40.851Z,99162.98
2022-11-29T09:55:23.422Z,99165.43
2022-11-29T09:57:52.350Z,99165.07
2022-11-29T10:00:20.619Z,99162.14
2022-11-29T10:02:57.054Z,99162.67
2022-11-29T10:05:39.111Z,99156.27
2022-11-29T10:08:15.860Z,99162.11
2022-11-29T10:10:48.456Z,99160.48
2022-11-29T10:13:33.445Z,99159.31
2022-11-29T10:16:12.490Z,99158.72
2022-11-29T10:18:48.470Z,99159.52
2022-11-29T10:21:24.460Z,99151.82
2022-11-29T10:23:55.498Z,99151.38
2022-11-29T10:26:25.854Z,99148.08
2022-11-29T10:28:57.886Z,99144.95
2022-11-29T10:31:29.263Z,99148.67
2022-11-29T10:33:58.173Z,99145.80
2022-11-29T10:36:34.287Z,99143.23
2022-11-29T10:39:11.402Z,99144.48
2022-11-29T10:41:41.239Z,99143.36
2022-11-29T10:44:13.861Z,99141.66
2022-11-29T10:46:41.275Z,99138.79
2022-11-29T10:49:17.468Z,99136.38
2022-11-29T10:51:46.407Z,99137.20
2022-11-29T10:54:27.993Z,99124.07
2022-11-29T10:56:57.481Z,99134.51
2022-11-29T10:59:27.100Z,99135.51
2022-11-29T11:01:54.612Z,99134.27
2022-11-29T11:04:26.839Z,99133.94
2022-11-29T11:06:57.169Z,99128.08
2022-11-29T11:09:35.660Z,99128.27
2022-11-29T11:12:19.011Z,99129.40
2022-11-29T11:14:47.198Z,99129.83
2022-11-29T11:17:32.721Z,99132.95
2022-11-29T11:20:18.926Z,99133.88
2022-11-29T11:22:57.954Z,99133.87
2022-11-29T11:25:41.298Z,99132.50
2022-11-29T11:28:15.514Z,99131.06
2022-11-29T11:30:51.496Z,99138.69
2022-11-29T11:33:19.282Z,99139.35
2022-11-29T11:36:17.649Z,99137.85
2022-11-29T11:39:15.214Z,99138.71
2022-11-29T11:41:58.460Z,99140.02
2022-11-29T11:44:52.342Z,99139.65
2022-11-29T11:47:24.502Z,99138.27
2022-11-29T11:49:54.610Z,99137.79
2022-11-29T11:52:26.412Z,99138.64
2022-11-29T11:54:59.819Z,99135.27
2022-11-29T11:57:28.255Z,99137.04
2022-11-29T12:00:03.422Z,99128.73
2022-11-29T12:02:40.848Z,99129.14
2022-11-29T12:05:18.961Z,99126.63
2022-11-29T12:08:09.801Z,99129.48
2022-11-29T12:10:39.842Z,99129.30
2022-11-29T12:13:16.268Z,99123.02
2022-11-29T12:15:47.675Z,99122.77
2022-11-29T12:18:36.187Z,99124.11
2022-11-29T12:21:10.434Z,99127.77
2022-11-29T12:23:47.746Z,99128.67
2022-11-29T12:26:48.881Z,99129.49
2022-11-29T12:29:17.701Z,99130.14
2022-11-29T12:31:55.895Z,99128.52
2022-11-29T12:34:45.286Z,99129.86
2022-11-29T12:37:20.826Z,99126.59
2022-11-29T12:39:57.415Z,99128.55
2022-11-29T12:42:24.216Z,99129.96
2022-11-29T12:45:06.318Z,99132.55
2022-11-29T12:47:57.237Z,99133.55
2022-11-29T12:50:39.637Z,99136.02
2022-11-29T12:53:30.440Z,99133.38
2022-11-29T12:56:19.120Z,99131.81
2022-11-29T12:59:02.558Z,99131.98
2022-11-29T13:02:04.865Z,99130.88
2022-11-29T13:04:44.189Z,99137.39
2022-11-29T13:07:30.132Z,99140.02
2022-11-29T13:10:17.663Z,99139.73
2022-11-29T13:12:53.922Z,99142.91
2022-11-29T13:15:25.029Z,99144.31
2022-11-29T13:17:53.164Z,99144.44
2022-11-29T13:20:37.042Z,99143.00
2022-11-29T13:23:14.503Z,99143.77
2022-11-29T13:25:45.247Z,99143.55
2022-11-29T13:28:29.258Z,99144.81
2022-11-29T13:31:01.771Z,99144.78
2022-11-29T13:33:59.116Z,99150.36
2022-11-29T13:36:56.789Z,99151.71
2022-11-29T13:39:54.487Z,99157.39
2022-11-29T13:42:28.745Z,99163.95
2022-11-29T13:45:07.529Z,99164.30
2022-11-29T13:47:48.575Z,99164.81
2022-11-29T13:50:44.327Z,99171.52
2022-11-29T13:53:18.010Z,99172.48
2022-11-29T13:55:50.338Z,99180.67
2022-11-29T13:58:18.611Z,99182.09
2022-11-29T14:00:45.847Z,99184.54
2022-11-29T14:03:30.255Z,99190.09
2022-11-29T14:06:12.462Z,99191.52
2022-11-29T14:09:17.237Z,99188.14
2022-11-29T14:11:46.005Z,99183.77
2022-11-29T14:14:14.024Z,99187.45
2022-11-29T14:16:44.250Z,99190.09
2022-11-29T14:19:20.399Z,99193.92
2022-11-29T14:22:15.852Z,99191.48
2022-11-29T14:24:55.538Z,99191.79
2022-11-29T14:27:22.290Z,99193.72
2022-11-29T14:29:50.199Z,99197.65
2022-11-29T14:32:24.882Z,99194.47
2022-11-29T14:35:04.816Z,99197.63
2022-11-29T14:38:02.160Z,99199.84
2022-11-29T14:40:41.580Z,99202.41
2022-11-29T14:43:37.601Z,99202.77
2022-11-29T14:46:09.494Z,99205.66
2022-11-29T14:48:36.970Z,99208.22
2022-11-29T14:51:12.791Z,99211.88
2022-11-29T14:53:42.023Z,99216.52
2022-11-29T14:56:32.892Z,99215.14
2022-11-29T14:59:30.580Z,99217.84
2022-11-29T15:01:58.979Z,99223.39
2022-11-29T15:04:27.306Z,99227.23
2022-11-29T15:06:57.096Z,99231.29
2022-11-29T15:09:24.710Z,99228.79
2022-11-29T15:12:09.837Z,99235.66
2022-11-29T15:14:37.760Z,99233.94
2022-11-29T15:17:17.930Z,99235.73
2022-11-29T15:19:51.794Z,99239.04
2022-11-29T15:22:22.678Z,99245.17
2022-11-29T15:24:53.860Z,99249.23
2022-11-29T15:27:21.835Z,99247.64
2022-11-29T15:29:48.890Z,99250.92
2022-11-29T15:32:23.799Z,99248.75
2022-11-29T15:34:53.562Z,99251.40
2022-11-29T15:37:24.847Z,99252.23
2022-11-29T15:40:11.068Z,99256.07
2022-11-29T15:42:40.945Z,99251.77
2022-11-29T15:45:24.283Z,99249.10
2022-11-29T15:47:51.256Z,99250.10
2022-11-29T15:50:29.619Z,99261.88
2022-11-29T15:53:02.014Z,99266.69
2022-11-29T15:55:29.589Z,99271.64
2022-11-29T15:58:02.632Z,99273.64
2022-11-29T16:00:33.847Z,99275.22
2022-11-29T16:03:02.205Z,99281.06
2022-11-29T16:05:35.800Z,99277.59
2022-11-29T16:08:07.935Z,99275.30
2022-11-29T16:10:39.487Z,99275.97
2022-11-29T16:13:27.660Z,99278.34
2022-11-29T16:16:10.942Z,99285.64
2022-11-29T16:18:41.001Z,99291.13
2022-11-29T16:21:21.663Z,99291.69
2022-11-29T16:23:48.618Z,99294.09
2022-11-29T16:26:20.675Z,99298.04
2022-11-29T16:28:50.357Z,99297.17
2022-11-29T16:31:19.303Z,99298.62
2022-11-29T16:33:49.093Z,99294.80
2022-11-29T16:36:16.591Z,99295.73
2022-11-29T16:38:47.017Z,99297.80
2022-11-29T16:41:21.470Z,99302.30
2022-11-29T16:43:53.671Z,99303.85
2022-11-29T16:46:20.426Z,99308.80
2022-11-29T16:48:49.455Z,99314.05
2022-11-29T16:51:23.807Z,99317.23
2022-11-29T16:53:52.527Z,99317.38
2022-11-29T16:56:23.521Z,99321.21
2022-11-29T16:59:20.867Z,99320.08
2022-11-29T17:01:40.613Z,99316.86
2022-11-29T17:04:09.037Z,99319.07
2022-11-29T17:06:36.864Z,99324.08
2022-11-29T17:09:03.892Z,99322.83
2022-11-29T17:11:30.595Z,99325.98
2022-11-29T17:13:57.716Z,99323.94
2022-11-29T17:16:24.891Z,99327.08
2022-11-29T17:18:52.996Z,99330.03
2022-11-29T17:21:25.507Z,99332.13
2022-11-29T17:23:53.608Z,99332.81
2022-11-29T17:26:21.631Z,99334.65
2022-11-29T17:28:50.277Z,99331.65
2022-11-29T17:31:19.871Z,99331.59
2022-11-29T17:33:46.685Z,99329.45
2022-11-29T17:36:16.690Z,99331.73
2022-11-29T17:38:44.788Z,99333.19
2022-11-29T17:41:14.994Z,99335.02
2022-11-29T17:43:42.399Z,99333.20
2022-11-29T17:46:11.492Z,99332.64
2022-11-29T17:48:38.800Z,99333.83
2022-11-29T17:51:17.222Z,99333.55
2022-11-29T17:53:53.887Z,99340.08
2022-11-29T17:56:23.853Z,99338.88
2022-11-29T17:58:52.512Z,99340.21
2022-11-29T18:01:22.147Z,99343.09
2022-11-29T18:03:52.019Z,99342.52
2022-11-29T18:06:20.953Z,99344.02
2022-11-29T18:08:50.718Z,99339.23
2022-11-29T18:11:20.203Z,99335.76
2022-11-29T18:13:47.974Z,99334.09
2022-11-29T18:16:18.133Z,99335.74
2022-11-29T18:18:45.486Z,99337.20
2022-11-29T18:21:13.481Z,99337.29
2022-11-29T18:23:42.848Z,99339.48
2022-11-29T18:26:15.997Z,99342.33
2022-11-29T18:31:31.231Z,99345.30
2022-11-29T18:34:14.313Z,99342.95
2022-11-29T18:36:44.535Z,99347.70
2022-11-29T18:39:14.850Z,99344.34
2022-11-29T18:41:44.082Z,99346.01
2022-11-29T18:44:13.165Z,99346.88
2022-11-29T18:46:41.672Z,99342.48
2022-11-29T18:49:10.325Z,99346.05
2022-11-29T18:51:38.106Z,99348.84
2022-11-29T18:54:06.047Z,99351.02
2022-11-29T18:56:35.057Z,99347.33
2022-11-29T18:59:04.998Z,99344.98
2022-11-29T19:01:37.885Z,99342.70
2022-11-29T19:04:04.822Z,99347.06
2022-11-29T19:06:39.371Z,99347.27
2022-11-29T19:09:09.829Z,99350.58
2022-11-29T19:11:36.573Z,99349.29
2022-11-29T19:14:08.027Z,99356.29
2022-11-29T19:16:34.801Z,99359.69
2022-11-29T19:19:02.007Z,99353.62
2022-11-29T19:21:32.061Z,99354.88
2022-11-29T19:24:01.019Z,99355.85
2022-11-29T19:26:29.637Z,99357.21
2022-11-29T19:28:57.252Z,99355.02
2022-11-29T19:31:25.294Z,99359.90
2022-11-29T19:33:52.873Z,99354.74
2022-11-29T19:36:22.483Z,99355.05
2022-11-29T19:38:53.399Z,99355.85
2022-11-29T19:41:23.635Z,99360.46
2022-11-29T19:43:50.684Z,99362.58
2022-11-29T19:46:18.984Z,99368.40
2022-11-29T19:48:46.278Z,99373.08
2022-11-29T19:51:16.591Z,99371.16
2022-11-29T19:53:45.097Z,99374.66
2022-11-29T19:56:14.334Z,99374.85
2022-11-29T19:58:42.782Z,99373.36
2022-11-29T20:01:14.962Z,99375.10
2022-11-29T20:03:42.223Z,99375.60
2022-11-29T20:06:09.902Z,99375.84
2022-11-29T20:08:38.529Z,99373.19
2022-11-29T20:11:11.769Z,99372.77
2022-11-29T20:13:40.029Z,99374.69
2022-11-29T20:16:12.097Z,99366.48
2022-11-29T20:18:44.605Z,99372.45
2022-11-29T20:21:32.421Z,99381.34
2022-11-29T20:24:02.000Z,99376.98
2022-11-29T20:26:31.100Z,99385.01
2022-11-29T20:28:59.168Z,99394.35
2022-11-29T20:31:26.404Z,99385.00
2022-11-29T20:33:55.080Z,99390.25
2022-11-29T20:36:52.930Z,99388.20
2022-11-29T20:39:29.257Z,99387.05
2022-11-29T20:42:14.752Z,99387.05
2022-11-29T20:44:52.300Z,99382.95
2022-11-29T20:47:21.775Z,99381.54
2022-11-29T20:49:49.095Z,99382.34
2022-11-29T20:52:30.843Z,99382.54
2022-11-29T20:54:57.504Z,99386.54
2022-11-29T20:57:24.237Z,99389.42
2022-11-29T20:59:50.955Z,99388.02
2022-11-29T21:02:17.607Z,99392.68
2022-11-29T21:04:44.558Z,99394.40
2022-11-29T21:07:11.604Z,99396.26
2022-11-29T21:09:38.243Z,99390.13
2022-11-29T21:12:05.547Z,99395.20
2022-11-29T21:14:32.500Z,99396.85
2022-11-29T21:16:59.768Z,99397.40
2022-11-29T21:19:26.986Z,99397.86
2022-11-29T21:22:01.468Z,99402.81
2022-11-29T21:24:54.460Z,99404.69
2022-11-29T21:27:34.219Z,99403.23
2022-11-29T21:30:03.712Z,99400.31
2022-11-29T21:32:31.807Z,99399.23
2022-11-29T21:34:59.121Z,99397.25
2022-11-29T21:37:29.739Z,99402.73
2022-11-29T21:39:57.668Z,99401.23
2022-11-29T21:42:24.348Z,99400.52
2022-11-29T21:44:51.035Z,99399.05
2022-11-29T21:47:17.949Z,99399.88
2022-11-29T21:49:45.045Z,99397.80
2022-11-29T21:52:11.749Z,99402.30
2022-11-29T21:54:39.361Z,99403.84
2022-11-29T21:57:06.102Z,99409.26
2022-11-29T21:59:32.763Z,99407.16
2022-11-29T22:01:59.701Z,99406.94
2022-11-29T22:04:26.690Z,99410.50
2022-11-29T22:06:53.569Z,99410.59
2022-11-29T22:09:20.457Z,99410.01
2022-11-29T22:11:47.110Z,99414.36
2022-11-29T22:14:18.243Z,99412.06
2022-11-29T22:16:47.274Z,99408.02
2022-11-29T22:19:16.938Z,99406.08
2022-11-29T22:21:46.536Z,99401.64
2022-11-29T22:24:15.923Z,99400.99
2022-11-29T22:26:43.911Z,99403.00
2022-11-29T22:29:13.966Z,99395.90
2022-11-29T22:31:41.608Z,99394.01
2022-11-29T22:34:09.473Z,99401.58
2022-11-29T22:36:37.551Z,99402.11
2022-11-29T22:39:05.594Z,99405.32
2022-11-29T22:41:34.088Z,99405.16
2022-11-29T22:44:00.899Z,99395.00
2022-11-29T22:46:29.048Z,99397.19
2022-11-29T22:48:57.660Z,99395.58
2022-11-29T22:51:30.628Z,99391.79
2022-11-29T22:54:00.437Z,99392.72
2022-11-29T22:56:29.691Z,99391.87
2022-11-29T22:58:57.995Z,99392.19
2022-11-29T23:01:26.976Z,99393.63
2022-11-29T23:03:56.209Z,99394.48
2022-11-29T23:06:25.604Z,99397.48
2022-11-29T23:08:54.802Z,99401.52
2022-11-29T23:11:24.175Z,99407.48
2022-11-29T23:13:51.074Z,99407.63
2022-11-29T23:16:20.626Z,99405.44
2022-11-29T23:18:47.693Z,99406.13
2022-11-29T23:21:20.926Z,99411.39
2022-11-29T23:23:52.908Z,99412.70
2022-11-29T23:26:26.066Z,99412.22
2022-11-29T23:28:54.153Z,99413.30
2022-11-29T23:31:22.615Z,99411.38
2022-11-29T23:33:49.632Z,99410.29
2022-11-29T23:36:17.899Z,99411.58
2022-11-29T23:38:45.217Z,99414.73
2022-11-29T23:41:12.294Z,99412.73
2022-11-29T23:43:40.711Z,99414.86
2022-11-29T23:46:10.363Z,99416.06
2022-11-29T23:48:37.296Z,99411.08
2022-11-29T23:51:04.308Z,99415.52
2022-11-29T23:53:31.226Z,99410.58
2022-11-29T23:56:00.112Z,99414.38
2022-11-29T23:58:26.905Z,99413.81
